createdAt,value
2022-11-14T00:02:34.905Z,23.60
2022-11-14T00:05:20.919Z,17.70
2022-11-14T00:08:06.300Z,23.15
2022-11-14T00:10:51.971Z,27.77
2022-11-14T00:13:37.414Z,23.88
2022-11-14T00:16:22.765Z,21.58
2022-11-14T00:19:08.312Z,20.15
2022-11-14T00:21:53.688Z,16.88
2022-11-14T00:24:39.498Z,27.33
2022-11-14T00:27:24.720Z,22.48
2022-11-14T00:30:10.583Z,24.20
2022-11-14T00:32:56.042Z,26.83
2022-11-14T00:35:41.344Z,22.52
2022-11-14T00:38:26.840Z,26.20
2022-11-14T00:41:12.608Z,18.50
2022-11-14T00:43:57.927Z,23.55
2022-11-14T00:46:43.360Z,27.40
2022-11-14T00:49:28.599Z,25.67
2022-11-14T00:52:13.915Z,30.00
2022-11-14T00:54:59.564Z,28.90
2022-11-14T00:57:44.973Z,24.15
2022-11-14T01:00:30.545Z,22.52
2022-11-14T01:03:16.190Z,24.55
2022-11-14T01:06:09.825Z,26.33
2022-11-14T01:08:55.222Z,29.42
2022-11-14T01:11:40.586Z,30.40
2022-11-14T01:14:25.871Z,22.02
2022-11-14T01:17:11.637Z,25.40
2022-11-14T01:19:57.311Z,26.42
2022-11-14T01:22:42.757Z,23.92
2022-11-14T01:25:28.112Z,23.80
2022-11-14T01:28:16.381Z,26.15
2022-11-14T01:31:17.029Z,25.92
2022-11-14T01:34:02.548Z,25.47
2022-11-14T01:36:48.026Z,27.40
2022-11-14T01:39:33.352Z,22.33
2022-11-14T01:42:20.939Z,22.00
2022-11-14T01:45:43.963Z,26.77
2022-11-14T01:48:51.638Z,22.95
2022-11-14T01:51:42.863Z,29.48
2022-11-14T01:54:31.078Z,26.10
2022-11-14T01:57:19.039Z,20.25
2022-11-14T02:00:08.330Z,16.65
2022-11-14T02:02:54.078Z,19.65
2022-11-14T02:05:39.744Z,18.48
2022-11-14T02:08:25.619Z,19.65
2022-11-14T02:11:13.591Z,28.75
2022-11-14T02:14:00.277Z,23.25
2022-11-14T02:17:01.058Z,15.75
2022-11-14T02:20:02.148Z,11.30
2022-11-14T02:22:50.235Z,13.85
2022-11-14T02:25:35.772Z,20.23
2022-11-14T02:28:21.762Z,8.57
2022-11-14T02:31:07.242Z,16.75
2022-11-14T02:33:52.568Z,13.93
2022-11-14T02:36:38.064Z,11.43
2022-11-14T02:39:23.836Z,11.93
2022-11-14T02:42:09.238Z,10.13
2022-11-14T02:44:54.519Z,10.88
2022-11-14T02:47:39.514Z,12.05
2022-11-14T02:50:24.975Z,10.60
2022-11-14T02:53:10.290Z,13.23
2022-11-14T02:55:55.762Z,10.80
2022-11-14T02:58:41.304Z,15.90
2022-11-14T03:01:27.088Z,12.40
2022-11-14T03:04:12.455Z,13.57
2022-11-14T03:06:57.785Z,11.15
2022-11-14T03:09:43.331Z,13.25
2022-11-14T03:12:28.513Z,11.57
2022-11-14T03:15:13.869Z,14.27
2022-11-14T03:17:59.291Z,11.40
2022-11-14T03:20:44.548Z,15.63
2022-11-14T03:23:30.581Z,18.05
2022-11-14T03:26:16.420Z,17.88
2022-11-14T03:29:01.746Z,14.23
2022-11-14T03:31:47.273Z,12.10
2022-11-14T03:34:32.537Z,13.57
2022-11-14T03:37:18.304Z,16.27
2022-11-14T03:40:04.347Z,9.80
2022-11-14T03:42:50.081Z,15.43
2022-11-14T03:45:38.865Z,14.98
2022-11-14T03:48:24.128Z,14.25
2022-11-14T03:51:09.717Z,14.55
2022-11-14T03:53:55.422Z,17.33
2022-11-14T03:56:40.732Z,11.43
2022-11-14T03:59:26.069Z,14.52
2022-11-14T04:02:11.375Z,11.85
2022-11-14T04:04:56.735Z,12.60
2022-11-14T04:07:42.220Z,12.25
2022-11-14T04:10:27.374Z,19.02
2022-11-14T04:13:12.788Z,13.75
2022-11-14T04:15:58.756Z,10.23
2022-11-14T04:18:44.181Z,13.23
2022-11-14T04:21:29.420Z,14.63
2022-11-14T04:24:14.815Z,10.45
2022-11-14T04:27:00.162Z,14.40
2022-11-14T04:29:45.545Z,15.57
2022-11-14T04:32:30.908Z,11.88
2022-11-14T04:35:16.386Z,19.25
2022-11-14T04:38:02.376Z,11.93
2022-11-14T04:40:54.331Z,13.88
2022-11-14T04:43:40.224Z,19.20
2022-11-14T04:46:25.561Z,16.52
2022-11-14T04:49:10.693Z,13.45
2022-11-14T04:51:56.018Z,17.63
2022-11-14T04:54:41.498Z,9.15
2022-11-14T04:57:27.241Z,13.98
2022-11-14T05:00:13.103Z,11.63
2022-11-14T05:03:01.206Z,14.73
2022-11-14T05:05:46.701Z,7.63
2022-11-14T05:08:32.645Z,14.00
2022-11-14T05:11:20.883Z,8.20
2022-11-14T05:14:08.630Z,9.85
2022-11-14T05:16:53.938Z,13.52
2022-11-14T05:19:39.272Z,14.57
2022-11-14T05:22:24.669Z,11.30
2022-11-14T05:25:10.401Z,18.58
2022-11-14T05:27:56.045Z,14.20
2022-11-14T05:30:41.656Z,10.45
2022-11-14T05:33:27.146Z,14.48
2022-11-14T05:36:15.213Z,10.00
2022-11-14T05:39:00.583Z,14.13
2022-11-14T05:41:46.274Z,16.08
2022-11-14T05:44:31.667Z,9.38
2022-11-14T05:47:17.028Z,10.98
2022-11-14T05:50:03.527Z,15.15
2022-11-14T05:52:49.104Z,17.00
2022-11-14T05:55:34.552Z,11.90
2022-11-14T05:58:20.065Z,11.18
2022-11-14T06:01:16.785Z,17.27
2022-11-14T06:04:05.885Z,11.80
2022-11-14T06:06:51.104Z,11.05
2022-11-14T06:09:36.678Z,16.10
2022-11-14T06:12:21.979Z,17.20
2022-11-14T06:15:07.941Z,17.38
2022-11-14T06:17:56.160Z,10.82
2022-11-14T06:20:41.467Z,16.10
2022-11-14T06:23:27.185Z,13.95
2022-11-14T06:26:22.427Z,11.35
2022-11-14T06:29:08.041Z,13.32
2022-11-14T06:31:53.583Z,12.45
2022-11-14T06:34:39.081Z,18.35
2022-11-14T06:37:24.240Z,13.68
2022-11-14T06:40:10.238Z,14.60
2022-11-14T06:42:56.715Z,9.88
2022-11-14T06:45:42.075Z,18.60
2022-11-14T06:48:28.236Z,17.67
2022-11-14T06:51:15.325Z,16.33
2022-11-14T06:54:01.250Z,13.10
2022-11-14T06:56:47.214Z,13.40
2022-11-14T06:59:32.457Z,15.23
2022-11-14T07:02:21.703Z,19.40
2022-11-14T07:05:07.405Z,12.18
2022-11-14T07:07:52.911Z,13.48
2022-11-14T07:10:38.470Z,15.30
2022-11-14T07:13:24.067Z,13.88
2022-11-14T07:16:09.277Z,17.30
2022-11-14T07:18:54.800Z,19.33
2022-11-14T07:21:40.393Z,15.13
2022-11-14T07:24:25.545Z,13.73
2022-11-14T07:27:13.712Z,17.63
2022-11-14T07:29:59.266Z,24.05
2022-11-14T07:32:44.666Z,24.02
2022-11-14T07:35:30.084Z,17.67
2022-11-14T07:38:15.348Z,15.55
2022-11-14T07:41:03.146Z,13.15
2022-11-14T07:43:48.539Z,24.42
2022-11-14T07:46:33.861Z,24.88
2022-11-14T07:49:19.284Z,12.98
2022-11-14T07:52:04.645Z,20.15
2022-11-14T07:54:50.022Z,15.32
2022-11-14T07:57:40.316Z,20.35
2022-11-14T08:00:26.807Z,18.70
2022-11-14T08:03:11.972Z,20.70
2022-11-14T08:06:05.474Z,17.08
2022-11-14T08:08:50.968Z,18.33
2022-11-14T08:11:48.299Z,22.42
2022-11-14T08:14:33.918Z,19.95
2022-11-14T08:17:21.086Z,20.92
2022-11-14T08:20:08.196Z,20.67
2022-11-14T08:23:03.912Z,24.73
2022-11-14T08:25:49.237Z,27.20
2022-11-14T08:28:34.836Z,18.05
2022-11-14T08:31:21.853Z,17.17
2022-11-14T08:34:07.514Z,23.23
2022-11-14T08:36:52.900Z,18.70
2022-11-14T08:39:38.215Z,18.52
2022-11-14T08:42:23.567Z,20.77
2022-11-14T08:45:09.250Z,29.35
2022-11-14T08:47:54.800Z,24.58
2022-11-14T08:50:40.133Z,20.33
2022-11-14T08:53:25.707Z,21.08
2022-11-14T08:56:11.143Z,19.10
2022-11-14T08:58:56.217Z,23.38
2022-11-14T09:01:41.708Z,20.83
2022-11-14T09:04:27.097Z,21.88
2022-11-14T09:07:12.460Z,20.38
2022-11-14T09:09:57.693Z,20.30
2022-11-14T09:12:43.336Z,25.35
2022-11-14T09:15:29.302Z,23.88
2022-11-14T09:18:15.430Z,21.15
2022-11-14T09:21:06.099Z,20.90
2022-11-14T09:23:51.836Z,21.08
2022-11-14T09:26:36.991Z,18.58
2022-11-14T09:29:22.554Z,25.02
2022-11-14T09:32:07.781Z,23.45
2022-11-14T09:34:53.175Z,19.25
2022-11-14T09:37:39.239Z,19.45
2022-11-14T09:40:24.892Z,22.15
2022-11-14T09:43:39.712Z,23.13
2022-11-14T09:46:47.825Z,23.48
2022-11-14T09:49:39.297Z,18.00
2022-11-14T09:52:47.798Z,24.48
2022-11-14T09:55:37.072Z,20.65
2022-11-14T09:58:22.558Z,21.77
2022-11-14T10:01:37.378Z,20.85
2022-11-14T10:05:00.803Z,22.00
2022-11-14T10:08:09.362Z,27.63
2022-11-14T10:10:58.301Z,18.80
2022-11-14T10:14:03.069Z,23.73
2022-11-14T10:16:58.548Z,24.70
2022-11-14T10:20:09.306Z,29.30
2022-11-14T10:23:06.721Z,25.00
2022-11-14T10:25:56.590Z,18.55
2022-11-14T10:28:54.225Z,20.05
2022-11-14T10:31:58.160Z,24.77
2022-11-14T10:34:54.635Z,23.52
2022-11-14T10:37:46.676Z,25.15
2022-11-14T10:40:44.822Z,29.67
2022-11-14T10:43:30.638Z,29.55
2022-11-14T10:46:18.847Z,20.35
2022-11-14T10:49:15.177Z,23.70
2022-11-14T10:52:03.973Z,28.23
2022-11-14T10:54:57.912Z,28.05
2022-11-14T10:57:45.760Z,24.45
2022-11-14T11:00:31.491Z,24.40
2022-11-14T11:03:16.923Z,26.35
2022-11-14T11:06:03.137Z,30.83
2022-11-14T11:09:07.158Z,24.77
2022-11-14T11:11:58.471Z,34.72
2022-11-14T11:14:48.444Z,25.75
2022-11-14T11:17:38.779Z,37.13
2022-11-14T11:20:36.171Z,28.08
2022-11-14T11:23:26.881Z,20.85
2022-11-14T11:26:32.659Z,19.92
2022-11-14T11:29:20.066Z,22.05
2022-11-14T11:32:06.036Z,21.65
2022-11-14T11:34:51.803Z,23.83
2022-11-14T11:37:50.135Z,21.95
2022-11-14T11:40:35.434Z,21.70
2022-11-14T11:43:52.488Z,26.75
2022-11-14T11:46:57.130Z,29.23
2022-11-14T11:49:53.372Z,31.00
2022-11-14T11:53:17.332Z,27.40
2022-11-14T11:56:15.038Z,28.17
2022-11-14T11:59:28.680Z,24.15
2022-11-14T12:02:23.752Z,27.52
2022-11-14T12:05:17.261Z,24.92
2022-11-14T12:08:21.328Z,22.58
2022-11-14T12:11:12.368Z,26.77
2022-11-14T12:14:30.527Z,24.73
2022-11-14T12:17:22.096Z,29.33
2022-11-14T12:20:12.164Z,19.73
2022-11-14T12:23:12.633Z,29.98
2022-11-14T12:26:20.035Z,26.05
2022-11-14T12:29:34.711Z,23.25
2022-11-14T12:32:29.172Z,25.80
2022-11-14T12:35:21.729Z,29.70
2022-11-14T12:38:15.374Z,26.05
2022-11-14T12:41:02.347Z,23.52
2022-11-14T12:43:48.012Z,22.60
2022-11-14T12:47:05.465Z,23.20
2022-11-14T12:49:53.768Z,24.20
2022-11-14T12:52:45.600Z,22.40
2022-11-14T12:55:31.122Z,28.00
2022-11-14T12:58:59.301Z,28.58
2022-11-14T13:01:53.183Z,28.92
2022-11-14T13:05:09.651Z,27.27
2022-11-14T13:08:38.319Z,31.25
2022-11-14T13:12:02.377Z,31.67
2022-11-14T13:15:09.920Z,28.63
2022-11-14T13:18:33.118Z,31.40
2022-11-14T13:21:45.851Z,28.25
2022-11-14T13:24:59.610Z,37.20
2022-11-14T13:28:06.373Z,28.83
2022-11-14T13:31:15.279Z,30.00
2022-11-14T13:34:01.713Z,24.37
2022-11-14T13:37:17.235Z,25.73
2022-11-14T13:40:21.285Z,31.70
2022-11-14T13:43:47.575Z,24.70
2022-11-14T13:47:03.574Z,34.70
2022-11-14T13:50:01.385Z,29.88
2022-11-14T13:52:48.829Z,33.35
2022-11-14T13:55:55.540Z,28.58
2022-11-14T13:58:54.556Z,28.85
2022-11-14T14:02:07.780Z,27.38
2022-11-14T14:05:14.002Z,23.38
2022-11-14T14:08:17.396Z,30.60
2022-11-14T14:11:21.633Z,23.05
2022-11-14T14:14:29.071Z,24.23
2022-11-14T14:17:45.282Z,20.30
2022-11-14T14:20:52.415Z,27.40
2022-11-14T14:23:50.267Z,27.48
2022-11-14T14:26:59.354Z,21.95
2022-11-14T14:30:02.351Z,26.08
2022-11-14T14:33:15.887Z,28.55
2022-11-14T14:36:01.563Z,20.85
2022-11-14T14:38:47.758Z,19.58
2022-11-14T14:41:33.583Z,19.13
2022-11-14T14:44:32.122Z,28.65
2022-11-14T14:47:34.479Z,21.33
2022-11-14T14:50:22.968Z,31.25
2022-11-14T14:53:22.654Z,27.73
2022-11-14T14:56:19.077Z,27.05
2022-11-14T14:59:25.150Z,35.20
2022-11-14T15:02:17.806Z,31.45
2022-11-14T15:05:03.333Z,26.10
2022-11-14T15:07:50.126Z,30.02
2022-11-14T15:10:35.501Z,33.40
2022-11-14T15:13:21.062Z,26.17
2022-11-14T15:16:07.349Z,30.00
2022-11-14T15:18:53.851Z,28.42
2022-11-14T15:21:39.629Z,29.55
2022-11-14T15:24:25.022Z,30.95
2022-11-14T15:27:20.490Z,36.75
2022-11-14T15:30:23.798Z,33.38
2022-11-14T15:33:32.345Z,29.08
2022-11-14T15:36:17.933Z,27.75
2022-11-14T15:39:27.233Z,32.00
2022-11-14T15:42:18.678Z,31.60
2022-11-14T15:45:23.522Z,29.80
2022-11-14T15:48:14.152Z,20.58
2022-11-14T15:50:59.810Z,38.63
2022-11-14T15:53:49.046Z,25.48
2022-11-14T15:56:34.657Z,31.55
2022-11-14T15:59:20.266Z,26.95
2022-11-14T16:02:22.124Z,28.40
2022-11-14T16:05:07.897Z,29.55
2022-11-14T16:07:53.294Z,33.20
2022-11-14T16:10:39.352Z,25.48
2022-11-14T16:13:24.606Z,35.30
2022-11-14T16:16:10.171Z,28.75
2022-11-14T16:18:55.692Z,33.70
2022-11-14T16:21:41.769Z,30.63
2022-11-14T16:24:32.516Z,30.67
2022-11-14T16:27:19.340Z,25.17
2022-11-14T16:30:04.953Z,29.88
2022-11-14T16:32:51.054Z,27.50
2022-11-14T16:35:36.797Z,25.98
2022-11-14T16:38:22.106Z,24.42
2022-11-14T16:41:08.408Z,22.77
2022-11-14T16:43:57.417Z,24.10
2022-11-14T16:46:44.193Z,23.48
2022-11-14T16:49:29.845Z,26.70
2022-11-14T16:52:17.151Z,13.52
2022-11-14T16:55:02.750Z,22.48
2022-11-14T16:57:49.321Z,29.77
2022-11-14T17:00:35.870Z,20.92
2022-11-14T17:03:22.069Z,18.40
2022-11-14T17:06:08.888Z,20.60
2022-11-14T17:08:58.497Z,21.02
2022-11-14T17:11:44.723Z,20.95
2022-11-14T17:14:30.424Z,23.42
2022-11-14T17:17:15.780Z,24.67
2022-11-14T17:20:01.221Z,20.55
2022-11-14T17:22:46.645Z,22.20
2022-11-14T17:25:31.967Z,19.70
2022-11-14T17:28:17.213Z,17.45
2022-11-14T17:31:09.052Z,18.02
2022-11-14T17:33:56.014Z,17.95
2022-11-14T17:36:41.754Z,18.25
2022-11-14T17:39:27.133Z,16.50
2022-11-14T17:42:12.561Z,22.67
2022-11-14T17:45:00.992Z,19.33
2022-11-14T17:47:46.793Z,21.23
2022-11-14T17:50:37.395Z,17.50
2022-11-14T17:53:23.203Z,18.85
2022-11-14T17:56:20.888Z,26.25
2022-11-14T17:59:06.383Z,21.42
2022-11-14T18:01:52.591Z,26.35
2022-11-14T18:04:38.160Z,26.30
2022-11-14T18:07:23.852Z,26.20
2022-11-14T18:10:09.446Z,32.20
2022-11-14T18:12:54.478Z,24.88
2022-11-14T18:15:39.951Z,26.38
2022-11-14T18:18:25.369Z,25.83
2022-11-14T18:21:17.169Z,34.75
2022-11-14T18:24:02.768Z,24.83
2022-11-14T18:26:48.263Z,26.73
2022-11-14T18:29:33.621Z,22.50
2022-11-14T18:32:19.326Z,24.90
2022-11-14T18:35:05.542Z,26.25
2022-11-14T18:37:50.646Z,31.85
2022-11-14T18:40:36.255Z,38.88
2022-11-14T18:43:21.370Z,32.15
2022-11-14T18:46:09.102Z,27.30
2022-11-14T18:48:57.267Z,34.72
2022-11-14T18:51:42.773Z,33.65
2022-11-14T18:54:28.409Z,32.40
2022-11-14T18:57:13.745Z,28.50
2022-11-14T18:59:59.057Z,27.80
2022-11-14T19:02:49.909Z,32.58
2022-11-14T19:05:36.208Z,28.85
2022-11-14T19:08:21.514Z,33.08
2022-11-14T19:11:09.198Z,32.90
2022-11-14T19:13:54.897Z,35.65
2022-11-14T19:16:40.284Z,40.97
2022-11-14T19:19:25.795Z,34.95
2022-11-14T19:22:11.271Z,37.97
2022-11-14T19:24:57.929Z,32.67
2022-11-14T19:27:43.766Z,35.40
2022-11-14T19:30:29.149Z,28.05
2022-11-14T19:33:14.408Z,32.28
2022-11-14T19:36:05.380Z,31.23
2022-11-14T19:38:55.302Z,38.05
2022-11-14T19:41:40.958Z,30.85
2022-11-14T19:44:26.256Z,27.23
2022-11-14T19:47:11.474Z,38.47
2022-11-14T19:49:57.167Z,36.53
2022-11-14T19:52:43.503Z,31.95
2022-11-14T19:55:29.955Z,30.52
2022-11-14T19:58:15.735Z,29.67
2022-11-14T20:01:02.502Z,25.45
2022-11-14T20:03:59.361Z,28.45
2022-11-14T20:06:45.503Z,28.17
2022-11-14T20:09:30.825Z,31.90
2022-11-14T20:12:16.298Z,33.17
2022-11-14T20:15:01.542Z,24.25
2022-11-14T20:17:46.851Z,32.63
2022-11-14T20:20:32.164Z,34.85
2022-11-14T20:23:17.680Z,29.70
2022-11-14T20:26:07.122Z,31.60
2022-11-14T20:28:56.502Z,24.10
2022-11-14T20:31:41.617Z,35.10
2022-11-14T20:34:27.160Z,36.05
2022-11-14T20:37:12.395Z,28.90
2022-11-14T20:39:57.729Z,21.15
2022-11-14T20:42:47.705Z,30.15
2022-11-14T20:45:32.883Z,25.85
2022-11-14T20:48:18.292Z,26.17
2022-11-14T20:51:08.251Z,29.15
2022-11-14T20:53:55.467Z,22.92
2022-11-14T20:56:40.498Z,27.60
2022-11-14T20:59:26.054Z,23.23
2022-11-14T21:02:15.028Z,23.70
2022-11-14T21:05:00.905Z,24.85
2022-11-14T21:07:46.664Z,28.63
2022-11-14T21:10:45.838Z,25.38
2022-11-14T21:13:53.584Z,32.30
2022-11-14T21:16:39.918Z,30.92
2022-11-14T21:19:25.841Z,25.95
2022-11-14T21:22:11.214Z,38.33
2022-11-14T21:24:56.759Z,25.90
2022-11-14T21:27:41.966Z,24.17
2022-11-14T21:30:31.568Z,23.45
2022-11-14T21:33:16.760Z,29.52
2022-11-14T21:36:30.023Z,29.30
2022-11-14T21:39:15.542Z,33.17
2022-11-14T21:42:01.463Z,25.83
2022-11-14T21:44:46.852Z,32.03
2022-11-14T21:47:33.772Z,30.63
2022-11-14T21:50:19.278Z,33.95
2022-11-14T21:53:15.962Z,28.80
2022-11-14T21:56:14.953Z,31.35
2022-11-14T21:59:14.267Z,28.77
2022-11-14T22:02:18.343Z,31.75
2022-11-14T22:05:04.504Z,26.35
2022-11-14T22:07:49.675Z,28.35
2022-11-14T22:10:35.137Z,35.13
2022-11-14T22:13:20.531Z,29.40
2022-11-14T22:16:06.929Z,28.83
2022-11-14T22:18:52.828Z,28.05
2022-11-14T22:21:38.498Z,32.67
2022-11-14T22:24:24.126Z,33.58
2022-11-14T22:27:09.532Z,24.75
2022-11-14T22:29:54.886Z,22.35
2022-11-14T22:32:40.555Z,27.95
2022-11-14T22:35:25.602Z,34.50
2022-11-14T22:38:11.254Z,31.30
2022-11-14T22:40:57.905Z,33.85
2022-11-14T22:43:43.643Z,30.92
2022-11-14T22:46:29.337Z,27.73
2022-11-14T22:49:19.706Z,27.77
2022-11-14T22:52:06.658Z,26.65
2022-11-14T22:54:52.075Z,27.77
2022-11-14T22:57:37.467Z,35.22
2022-11-14T23:00:22.789Z,31.02
2022-11-14T23:03:08.210Z,28.45
2022-11-14T23:05:53.516Z,27.45
2022-11-14T23:08:39.453Z,25.52
2022-11-14T23:11:26.914Z,29.08
2022-11-14T23:14:14.309Z,28.90
2022-11-14T23:16:59.809Z,29.15
2022-11-14T23:19:45.333Z,33.42
2022-11-14T23:22:30.697Z,34.55
2022-11-14T23:25:16.285Z,28.58
2022-11-14T23:28:01.751Z,29.73
2022-11-14T23:30:47.209Z,37.60
2022-11-14T23:33:33.140Z,29.13
2022-11-14T23:36:18.974Z,30.95
2022-11-14T23:39:04.452Z,36.63
2022-11-14T23:41:49.789Z,30.98
2022-11-14T23:44:35.147Z,25.35
2022-11-14T23:47:20.664Z,36.78
2022-11-14T23:50:07.106Z,35.60
2022-11-14T23:52:53.155Z,28.90
2022-11-14T23:55:38.703Z,32.75
2022-11-14T23:58:25.302Z,32.90
